Time;durP1;ratioP1;P1;durP2;ratioP2;P2;SDS_P1;SDS_P2;PMS_P1;PMS_P2;Temp;Humidity;BMP_temperature;BMP_pressure;BME280_temperature;BME280_humidity;BME280_pressure;Samples;Min_cycle;Max_cycle;Signal;HPM_P1;HPM_P2
2023/09/16 00:00:19;;;;;;;39.70;35.25;;;22.00;66.00;;;;;;6293820;28;20056;-63
2023/09/16 00:03:20;;;;;;;40.17;34.90;;;22.00;66.00;;;;;;6292499;28;20021;-62
2023/09/16 00:06:21;;;;;;;39.55;34.65;;;22.00;66.00;;;;;;6293620;28;20331;-62
2023/09/16 00:09:22;;;;;;;41.10;34.97;;;22.00;66.00;;;;;;6293623;28;20048;-62
2023/09/16 00:12:26;;;;;;;40.10;33.75;;;22.00;66.00;;;;;;6293805;28;20431;-63
2023/09/16 00:15:27;;;;;;;39.72;34.65;;;22.00;66.00;;;;;;6293745;28;20032;-62
2023/09/16 00:18:28;;;;;;;37.42;32.17;;;22.00;66.00;;;;;;6293436;28;20029;-63
2023/09/16 00:21:29;;;;;;;37.35;32.65;;;22.00;65.90;;;;;;6293827;28;20494;-62
2023/09/16 00:24:30;;;;;;;39.88;32.35;;;22.00;65.90;;;;;;6293490;28;20020;-62
2023/09/16 00:27:30;;;;;;;37.42;32.35;;;22.00;65.90;;;;;;6294040;28;20036;-63
2023/09/16 00:30:31;;;;;;;38.28;33.35;;;22.00;65.90;;;;;;6298264;28;20024;-62
2023/09/16 00:33:35;;;;;;;38.00;32.70;;;22.00;65.90;;;;;;6299058;28;20051;-62
2023/09/16 00:36:35;;;;;;;38.15;32.97;;;22.00;65.90;;;;;;6299595;28;20550;-62
2023/09/16 00:39:38;;;;;;;39.50;32.70;;;22.00;65.90;;;;;;6299671;28;20035;-62
2023/09/16 00:42:38;;;;;;;36.90;30.35;;;22.00;65.90;;;;;;6299755;28;20036;-62
2023/09/16 00:45:41;;;;;;;36.15;31.17;;;22.00;65.90;;;;;;6299463;28;20112;-63
2023/09/16 00:48:45;;;;;;;36.00;30.70;;;22.00;66.00;;;;;;6296468;28;20182;-65
2023/09/16 00:51:45;;;;;;;36.25;31.70;;;22.00;66.00;;;;;;6288916;28;20028;-65
2023/09/16 00:54:50;;;;;;;35.10;30.13;;;22.00;66.00;;;;;;6297205;28;20056;-64
2023/09/16 00:57:54;;;;;;;35.53;29.55;;;22.00;66.00;;;;;;6295912;28;20051;-64
2023/09/16 01:00:55;;;;;;;34.58;28.90;;;22.00;66.00;;;;;;6294605;28;20048;-65
2023/09/16 01:03:57;;;;;;;33.83;29.55;;;22.00;66.00;;;;;;6295959;28;20027;-64
2023/09/16 01:06:59;;;;;;;31.77;27.08;;;22.00;66.00;;;;;;6295730;28;20067;-64
2023/09/16 01:10:00;;;;;;;32.00;28.45;;;22.00;66.00;;;;;;6296051;28;20639;-64
2023/09/16 01:13:00;;;;;;;33.95;28.77;;;22.00;66.10;;;;;;6295531;28;20028;-64
2023/09/16 01:16:32;;;;;;;31.58;27.33;;;22.00;66.00;;;;;;6295587;28;20415;-64
2023/09/16 01:19:44;;;;;;;32.70;27.70;;;22.00;66.00;;;;;;6290149;28;20098;-64
2023/09/16 01:22:45;;;;;;;35.33;28.75;;;22.00;66.00;;;;;;6295490;28;20100;-64
2023/09/16 01:25:46;;;;;;;30.52;26.48;;;22.00;66.10;;;;;;6295879;28;20031;-65
2023/09/16 01:28:47;;;;;;;32.35;27.85;;;22.00;66.10;;;;;;6295201;28;20028;-65
2023/09/16 01:31:47;;;;;;;31.75;27.55;;;22.00;66.10;;;;;;6294900;28;20035;-64
2023/09/16 01:34:52;;;;;;;29.92;26.65;;;22.00;66.00;;;;;;6295147;28;20330;-64
2023/09/16 01:37:53;;;;;;;30.40;26.92;;;22.00;66.10;;;;;;6294741;28;20048;-65
2023/09/16 01:40:56;;;;;;;33.42;27.88;;;22.00;66.10;;;;;;6294046;28;20487;-65
2023/09/16 01:43:58;;;;;;;30.25;26.65;;;22.00;66.10;;;;;;6295003;28;20479;-64
2023/09/16 01:46:59;;;;;;;29.80;25.23;;;22.00;66.10;;;;;;6294784;28;20418;-64
2023/09/16 01:49:59;;;;;;;30.20;25.00;;;22.00;66.10;;;;;;6293369;28;20063;-65
2023/09/16 01:53:01;;;;;;;27.25;24.27;;;22.00;66.10;;;;;;6289049;28;20024;-64
2023/09/16 01:56:01;;;;;;;27.08;24.13;;;22.00;66.10;;;;;;6294857;28;20023;-64
2023/09/16 01:59:03;;;;;;;27.25;24.33;;;22.00;66.10;;;;;;6292602;28;20028;-65
2023/09/16 02:02:04;;;;;;;28.85;24.52;;;22.00;66.10;;;;;;6294507;28;20016;-64
2023/09/16 02:05:05;;;;;;;27.90;23.83;;;22.00;66.10;;;;;;6294595;28;20475;-65
2023/09/16 02:08:06;;;;;;;26.98;23.40;;;22.00;66.10;;;;;;6292913;28;20070;-65
2023/09/16 02:11:07;;;;;;;28.15;23.63;;;22.00;66.10;;;;;;6294031;28;20030;-64
2023/09/16 02:14:12;;;;;;;26.00;22.95;;;22.00;66.10;;;;;;6294717;28;20046;-65
2023/09/16 02:17:13;;;;;;;26.13;22.80;;;22.00;66.10;;;;;;6286370;28;20178;-64
2023/09/16 02:20:13;;;;;;;24.98;22.08;;;22.00;66.20;;;;;;6292767;28;20028;-64
2023/09/16 02:23:14;;;;;;;26.83;23.23;;;22.00;66.10;;;;;;6294072;28;20066;-65
2023/09/16 02:26:15;;;;;;;25.67;22.20;;;22.00;66.10;;;;;;6294076;28;20115;-64
2023/09/16 02:29:15;;;;;;;25.63;22.10;;;22.00;66.10;;;;;;6293625;28;20024;-64
2023/09/16 02:32:16;;;;;;;27.02;23.60;;;22.00;66.10;;;;;;6292357;28;20027;-64
2023/09/16 02:35:17;;;;;;;25.70;22.35;;;22.00;66.10;;;;;;6294140;28;20051;-64
2023/09/16 02:38:17;;;;;;;24.20;20.95;;;22.00;66.10;;;;;;6292222;28;20390;-64
2023/09/16 02:41:18;;;;;;;25.13;21.88;;;22.00;66.20;;;;;;6291724;28;20024;-64
2023/09/16 02:44:19;;;;;;;23.48;20.98;;;22.00;66.10;;;;;;6293611;28;20025;-64
2023/09/16 02:47:20;;;;;;;24.05;21.45;;;22.00;66.10;;;;;;6293432;28;20013;-65
2023/09/16 02:50:21;;;;;;;26.05;21.55;;;22.00;66.10;;;;;;6292834;28;20382;-64
2023/09/16 02:53:21;;;;;;;23.60;20.83;;;22.00;66.20;;;;;;6286901;28;20074;-64
2023/09/16 02:56:23;;;;;;;24.13;21.27;;;22.00;66.20;;;;;;6293383;28;20017;-65
2023/09/16 02:59:24;;;;;;;23.40;20.35;;;22.00;66.20;;;;;;6291668;28;20425;-65
2023/09/16 03:02:25;;;;;;;23.90;20.65;;;22.00;66.20;;;;;;6292000;28;20506;-64
2023/09/16 03:05:26;;;;;;;22.65;19.70;;;22.00;66.10;;;;;;6292732;28;20044;-64
2023/09/16 03:08:27;;;;;;;22.02;18.83;;;22.00;66.20;;;;;;6293131;28;20032;-65
2023/09/16 03:11:27;;;;;;;20.52;18.02;;;22.00;66.10;;;;;;6292603;28;20110;-64
2023/09/16 03:14:28;;;;;;;22.33;19.85;;;22.00;67.00;;;;;;6291366;28;20435;-64
2023/09/16 03:17:29;;;;;;;22.20;19.25;;;22.00;66.20;;;;;;6292535;28;20074;-64
2023/09/16 03:20:30;;;;;;;21.08;18.33;;;22.00;66.20;;;;;;6292141;28;20020;-65
2023/09/16 03:23:31;;;;;;;21.90;19.42;;;22.00;66.20;;;;;;6292293;28;20355;-64
2023/09/16 03:26:32;;;;;;;20.50;17.52;;;22.00;66.20;;;;;;6292021;28;20032;-65
2023/09/16 03:29:32;;;;;;;20.27;17.85;;;22.00;66.20;;;;;;6292285;28;20032;-64
2023/09/16 03:32:33;;;;;;;20.98;18.17;;;22.00;66.20;;;;;;6292468;28;20097;-64
2023/09/16 03:35:36;;;;;;;20.90;18.52;;;22.00;66.20;;;;;;6292355;28;20032;-65
2023/09/16 03:38:45;;;;;;;21.25;18.33;;;22.00;66.20;;;;;;6291929;28;20055;-64
2023/09/16 03:41:46;;;;;;;18.77;16.50;;;22.00;66.20;;;;;;6291983;28;20028;-65
2023/09/16 03:44:46;;;;;;;20.60;17.58;;;22.00;66.20;;;;;;6290923;28;20428;-64
2023/09/16 03:47:47;;;;;;;20.25;17.73;;;22.00;66.20;;;;;;6292399;28;20021;-64
2023/09/16 03:50:48;;;;;;;19.10;17.02;;;22.00;66.20;;;;;;6287474;28;20025;-64
2023/09/16 03:53:48;;;;;;;21.30;17.10;;;22.00;66.20;;;;;;6289379;28;20100;-64
2023/09/16 03:56:49;;;;;;;20.75;17.63;;;22.00;67.00;;;;;;6292072;28;20059;-65
2023/09/16 04:00:36;;;;;;;18.77;16.02;;;22.00;66.20;;;;;;6292255;28;20037;-65
2023/09/16 04:03:37;;;;;;;18.58;16.58;;;22.00;66.20;;;;;;6285213;28;20078;-64
2023/09/16 04:06:38;;;;;;;18.58;16.52;;;22.00;66.20;;;;;;6290307;28;20479;-64
2023/09/16 04:09:39;;;;;;;17.67;15.40;;;22.00;66.20;;;;;;6292240;28;20394;-65
2023/09/16 04:12:39;;;;;;;18.92;15.85;;;22.00;66.20;;;;;;6291989;28;20021;-64
2023/09/16 04:15:40;;;;;;;18.38;16.20;;;22.00;66.20;;;;;;6290576;28;20078;-64
2023/09/16 04:18:41;;;;;;;17.73;15.80;;;22.00;66.20;;;;;;6290236;28;20048;-64
2023/09/16 04:21:42;;;;;;;17.95;15.63;;;22.00;66.20;;;;;;6292003;28;20052;-65
2023/09/16 04:24:43;;;;;;;17.08;14.63;;;22.00;66.20;;;;;;6290169;28;20024;-65
2023/09/16 04:27:45;;;;;;;17.85;15.95;;;22.00;66.20;;;;;;6291872;28;20379;-64
2023/09/16 04:30:50;;;;;;;16.75;14.82;;;22.00;66.20;;;;;;6291588;28;20079;-64
2023/09/16 04:33:51;;;;;;;17.10;14.95;;;22.00;66.20;;;;;;6291594;28;20024;-64
2023/09/16 04:36:54;;;;;;;17.17;14.75;;;22.00;66.20;;;;;;6291477;28;20098;-64
2023/09/16 04:39:55;;;;;;;17.73;15.38;;;22.00;66.20;;;;;;6291752;28;20569;-67
2023/09/16 04:42:56;;;;;;;16.40;14.68;;;22.00;66.30;;;;;;6291726;28;20036;-67
2023/09/16 04:45:58;;;;;;;16.30;14.52;;;22.00;66.30;;;;;;6291327;28;20025;-66
2023/09/16 04:48:58;;;;;;;15.38;13.63;;;22.00;66.20;;;;;;6291323;28;20024;-66
2023/09/16 04:51:59;;;;;;;16.35;14.30;;;22.00;66.20;;;;;;6283980;28;20461;-66
2023/09/16 04:55:00;;;;;;;15.00;13.40;;;22.00;66.20;;;;;;6290239;28;20024;-66
2023/09/16 04:58:01;;;;;;;15.32;13.73;;;22.00;66.20;;;;;;6291044;28;20027;-66
2023/09/16 05:01:05;;;;;;;15.23;13.63;;;22.00;66.20;;;;;;6288653;28;20321;-67
2023/09/16 05:04:06;;;;;;;14.98;13.23;;;22.00;66.20;;;;;;6288954;28;20021;-66
2023/09/16 05:07:07;;;;;;;15.27;13.50;;;22.00;66.20;;;;;;6289549;28;20025;-67
2023/09/16 05:10:09;;;;;;;15.50;13.82;;;22.00;66.20;;;;;;6290972;28;20592;-67
2023/09/16 05:13:10;;;;;;;14.52;13.02;;;22.00;66.20;;;;;;6290255;28;20390;-66
2023/09/16 05:16:11;;;;;;;14.57;13.07;;;22.00;66.20;;;;;;6293936;28;20099;-66
2023/09/16 05:19:12;;;;;;;14.43;12.90;;;22.00;66.30;;;;;;6296086;28;20060;-66
2023/09/16 05:22:12;;;;;;;14.25;12.70;;;22.00;66.30;;;;;;6293124;28;20024;-66
2023/09/16 05:25:13;;;;;;;14.13;12.63;;;22.00;66.20;;;;;;6295701;28;20028;-66
2023/09/16 05:28:14;;;;;;;14.68;12.55;;;22.00;66.20;;;;;;6295298;28;20484;-66
2023/09/16 05:31:14;;;;;;;14.02;12.35;;;22.00;66.20;;;;;;6294005;28;20047;-66
2023/09/16 05:34:15;;;;;;;13.75;12.35;;;22.00;66.20;;;;;;6295069;28;21008;-67
2023/09/16 05:37:16;;;;;;;15.35;13.13;;;22.00;66.30;;;;;;6295042;28;20040;-63
2023/09/16 05:40:16;;;;;;;14.13;12.63;;;22.00;66.30;;;;;;6296712;28;20020;-62
2023/09/16 05:43:17;;;;;;;13.75;12.05;;;22.00;66.20;;;;;;6296987;28;20109;-62
2023/09/16 05:46:18;;;;;;;12.95;11.55;;;22.00;66.20;;;;;;6296671;28;20074;-63
2023/09/16 05:49:19;;;;;;;12.98;11.57;;;22.00;66.20;;;;;;6296770;28;20021;-63
2023/09/16 05:52:20;;;;;;;13.35;11.65;;;22.00;66.20;;;;;;6296478;28;20028;-62
2023/09/16 05:55:20;;;;;;;13.30;11.90;;;22.00;66.20;;;;;;6296539;28;20028;-62
2023/09/16 05:58:21;;;;;;;13.10;11.57;;;22.00;66.30;;;;;;6296158;28;20060;-62
2023/09/16 06:01:22;;;;;;;12.20;10.90;;;22.00;66.30;;;;;;6295895;28;20387;-61
2023/09/16 06:04:23;;;;;;;12.90;11.55;;;22.00;66.20;;;;;;6295758;28;20032;-62
2023/09/16 06:07:25;;;;;;;12.18;10.57;;;22.00;66.30;;;;;;6294909;28;20091;-62
2023/09/16 06:10:26;;;;;;;13.98;12.30;;;22.00;66.30;;;;;;6295920;28;20025;-63
2023/09/16 06:13:27;;;;;;;12.43;11.13;;;22.00;66.30;;;;;;6295715;28;20028;-62
2023/09/16 06:16:28;;;;;;;11.75;10.55;;;22.00;66.30;;;;;;6295716;28;20032;-62
2023/09/16 06:19:29;;;;;;;13.38;11.48;;;22.00;66.20;;;;;;6295268;28;20043;-62
2023/09/16 06:22:29;;;;;;;11.98;10.70;;;22.00;66.20;;;;;;6295442;28;20505;-63
2023/09/16 06:25:30;;;;;;;12.07;10.73;;;22.00;66.30;;;;;;6294880;28;20020;-63
2023/09/16 06:28:33;;;;;;;11.48;10.10;;;22.00;66.40;;;;;;6294073;28;20431;-62
2023/09/16 06:31:33;;;;;;;12.40;10.52;;;22.00;66.30;;;;;;6295305;28;20028;-62
2023/09/16 06:34:34;;;;;;;12.18;10.88;;;22.00;66.20;;;;;;6295866;28;20556;-62
2023/09/16 06:37:35;;;;;;;13.65;10.65;;;22.00;66.30;;;;;;6295190;28;20052;-62
2023/09/16 06:40:38;;;;;;;11.77;10.52;;;22.00;66.30;;;;;;6294252;28;20725;-62
2023/09/16 06:43:39;;;;;;;11.48;10.25;;;22.00;66.30;;;;;;6293951;28;20445;-62
2023/09/16 06:46:40;;;;;;;11.43;10.18;;;22.00;66.30;;;;;;6295688;28;20078;-63
2023/09/16 06:49:42;;;;;;;11.52;10.25;;;22.00;66.30;;;;;;6295613;28;20040;-63
2023/09/16 06:52:44;;;;;;;11.68;10.35;;;22.00;66.30;;;;;;6293798;28;20032;-62
2023/09/16 06:55:47;;;;;;;11.95;10.60;;;22.00;66.30;;;;;;6295098;28;20078;-62
2023/09/16 06:58:49;;;;;;;11.77;10.45;;;22.00;66.30;;;;;;6294715;28;20016;-63
2023/09/16 07:01:49;;;;;;;10.52;9.43;;;22.00;66.20;;;;;;6294698;28;20030;-63
2023/09/16 07:04:50;;;;;;;11.23;9.82;;;22.00;66.30;;;;;;6294842;28;20017;-62
2023/09/16 07:07:52;;;;;;;10.50;9.40;;;22.00;66.20;;;;;;6294797;28;20067;-63
2023/09/16 07:10:54;;;;;;;9.70;8.70;;;22.00;66.30;;;;;;6294712;28;20115;-62
2023/09/16 07:13:55;;;;;;;10.38;9.32;;;22.00;66.30;;;;;;6294443;28;20063;-62
2023/09/16 07:16:55;;;;;;;9.93;8.93;;;22.00;66.30;;;;;;6294549;28;20103;-62
2023/09/16 07:19:56;;;;;;;10.98;9.73;;;22.00;66.30;;;;;;6294189;28;20390;-62
2023/09/16 07:22:57;;;;;;;10.43;9.32;;;22.00;66.40;;;;;;6293304;28;20398;-62
2023/09/16 07:25:59;;;;;;;11.23;9.65;;;22.00;66.30;;;;;;6294620;28;20016;-62
2023/09/16 07:29:00;;;;;;;10.30;9.20;;;22.00;66.50;;;;;;6293911;28;20027;-62
2023/09/16 07:32:00;;;;;;;9.02;8.10;;;22.00;66.30;;;;;;6294066;28;20395;-62
2023/09/16 07:35:01;;;;;;;10.02;8.65;;;22.00;66.10;;;;;;6294192;28;20058;-63
2023/09/16 07:38:02;;;;;;;10.32;9.05;;;22.00;66.00;;;;;;6293358;28;20529;-62
2023/09/16 07:41:03;;;;;;;9.73;8.63;;;22.00;66.10;;;;;;6294009;28;20017;-62
2023/09/16 07:44:04;;;;;;;9.35;8.32;;;22.00;66.20;;;;;;6292661;28;20040;-62
2023/09/16 07:47:05;;;;;;;8.45;7.43;;;22.00;66.20;;;;;;6293920;28;20099;-62
2023/09/16 07:50:06;;;;;;;10.13;8.57;;;22.00;66.20;;;;;;6293907;28;20373;-63
2023/09/16 07:53:07;;;;;;;9.50;8.40;;;22.00;66.20;;;;;;6293941;28;20103;-61
2023/09/16 07:56:08;;;;;;;9.43;8.43;;;22.00;66.20;;;;;;6294311;28;20479;-62
2023/09/16 07:59:08;;;;;;;9.93;8.93;;;22.00;66.20;;;;;;6294074;28;20185;-62
2023/09/16 08:02:09;;;;;;;10.38;8.93;;;22.00;66.20;;;;;;6294014;28;20060;-62
2023/09/16 08:05:10;;;;;;;9.40;8.13;;;22.00;66.20;;;;;;6293461;28;20020;-62
2023/09/16 08:08:10;;;;;;;8.95;7.82;;;22.00;66.20;;;;;;6294554;28;20021;-63
2023/09/16 08:11:12;;;;;;;8.32;7.53;;;22.00;66.20;;;;;;6293935;28;20177;-62
2023/09/16 08:14:12;;;;;;;8.82;7.70;;;22.00;66.20;;;;;;6293942;28;20033;-62
2023/09/16 08:17:13;;;;;;;9.10;8.15;;;22.00;66.20;;;;;;6293516;28;20028;-62
2023/09/16 08:20:18;;;;;;;9.63;8.38;;;22.00;66.20;;;;;;6293909;28;20515;-62
2023/09/16 08:23:19;;;;;;;8.45;7.65;;;22.00;66.20;;;;;;6293502;28;20066;-62
2023/09/16 08:26:20;;;;;;;8.65;7.75;;;22.00;66.20;;;;;;6293964;28;20029;-62
2023/09/16 08:29:20;;;;;;;8.85;7.78;;;22.00;66.20;;;;;;6293503;28;20025;-62
2023/09/16 08:32:28;;;;;;;8.20;7.40;;;22.00;67.10;;;;;;6293633;28;20036;-62
2023/09/16 08:35:29;;;;;;;8.65;7.75;;;22.00;66.20;;;;;;6293375;28;20018;-62
2023/09/16 08:38:30;;;;;;;8.23;7.43;;;22.00;66.20;;;;;;6293473;28;20056;-62
2023/09/16 08:41:49;;;;;;;8.73;7.82;;;21.90;66.10;;;;;;6293384;28;20021;-62
2023/09/16 08:44:52;;;;;;;7.82;7.03;;;22.00;66.20;;;;;;6293795;28;20024;-62
2023/09/16 08:47:56;;;;;;;8.05;7.03;;;22.00;66.30;;;;;;6292510;28;20368;-62
2023/09/16 08:50:59;;;;;;;8.13;7.28;;;22.00;66.30;;;;;;6298123;28;20061;-62
2023/09/16 08:54:02;;;;;;;8.32;7.30;;;22.00;66.30;;;;;;6298409;28;20452;-62
2023/09/16 08:57:03;;;;;;;7.72;6.72;;;22.00;66.20;;;;;;6298023;28;20024;-63
2023/09/16 09:00:05;;;;;;;8.73;7.43;;;22.00;66.20;;;;;;6298019;28;20510;-62
2023/09/16 09:03:06;;;;;;;8.75;7.43;;;22.00;66.30;;;;;;6297835;28;20028;-68
2023/09/16 09:06:08;;;;;;;7.55;6.75;;;22.00;66.30;;;;;;6295176;28;20013;-68
2023/09/16 09:09:08;;;;;;;10.20;6.97;;;22.00;66.30;;;;;;6295007;28;20055;-68
2023/09/16 09:12:09;;;;;;;8.20;7.22;;;22.00;66.20;;;;;;6294925;28;20024;-68
2023/09/16 09:15:12;;;;;;;7.72;6.93;;;22.00;66.30;;;;;;6294787;28;20016;-68
2023/09/16 09:18:16;;;;;;;7.35;6.63;;;22.00;66.30;;;;;;6290118;28;20481;-68
2023/09/16 09:21:17;;;;;;;7.57;6.73;;;22.00;66.30;;;;;;6295027;28;20028;-68
2023/09/16 09:24:18;;;;;;;7.07;6.35;;;22.00;66.20;;;;;;6294896;28;20020;-67
2023/09/16 09:27:18;;;;;;;7.25;6.53;;;22.00;66.30;;;;;;6295379;28;20032;-68
2023/09/16 09:30:30;;;;;;;7.10;6.35;;;22.00;66.40;;;;;;6295698;28;20070;-67
2023/09/16 09:33:38;;;;;;;7.00;6.30;;;22.00;66.30;;;;;;6294220;28;20024;-68
2023/09/16 09:36:41;;;;;;;7.65;6.65;;;22.00;66.40;;;;;;6291103;28;20025;-68
2023/09/16 09:39:45;;;;;;;6.80;6.05;;;21.90;66.20;;;;;;6294324;28;20082;-68
2023/09/16 09:42:48;;;;;;;7.57;6.72;;;22.00;66.30;;;;;;6295488;28;20025;-67
2023/09/16 09:45:49;;;;;;;6.93;6.22;;;21.90;66.20;;;;;;6295550;28;20384;-68
2023/09/16 09:48:50;;;;;;;6.75;6.10;;;21.90;66.20;;;;;;6295775;28;20024;-68
2023/09/16 09:51:50;;;;;;;6.65;5.95;;;22.00;66.40;;;;;;6288378;28;20111;-68
2023/09/16 09:54:55;;;;;;;6.90;6.20;;;22.00;66.30;;;;;;6295883;28;20100;-68
2023/09/16 09:57:56;;;;;;;6.85;5.90;;;22.00;66.30;;;;;;6294844;28;20044;-68
2023/09/16 10:00:58;;;;;;;7.68;6.55;;;21.90;66.20;;;;;;6294205;28;20056;-68
2023/09/16 10:04:02;;;;;;;6.30;5.70;;;22.00;66.30;;;;;;6293275;28;20497;-68
2023/09/16 10:07:04;;;;;;;6.70;6.00;;;21.90;66.20;;;;;;6295424;28;20028;-67
2023/09/16 10:10:07;;;;;;;6.88;6.18;;;22.00;66.40;;;;;;6293669;28;20025;-67
2023/09/16 10:13:09;;;;;;;6.00;5.40;;;22.00;66.40;;;;;;6286127;28;20483;-67
2023/09/16 10:16:10;;;;;;;7.28;6.43;;;22.00;66.40;;;;;;6293639;28;20035;-68
2023/09/16 10:19:11;;;;;;;6.80;6.10;;;21.90;66.20;;;;;;6294401;28;20278;-68
2023/09/16 10:22:13;;;;;;;6.63;5.82;;;22.00;66.40;;;;;;6294001;28;20609;-68
2023/09/16 10:25:16;;;;;;;6.97;6.18;;;21.90;66.30;;;;;;6294611;28;20376;-68
2023/09/16 10:28:17;;;;;;;6.65;5.95;;;21.90;66.20;;;;;;6294498;28;20053;-68
2023/09/16 10:31:18;;;;;;;6.78;5.97;;;21.90;66.20;;;;;;6293109;28;20075;-67
2023/09/16 10:34:19;;;;;;;6.53;5.82;;;22.00;66.40;;;;;;6293171;28;20029;-67
2023/09/16 10:37:21;;;;;;;7.55;6.13;;;21.90;66.20;;;;;;6292718;28;20044;-68
2023/09/16 10:40:23;;;;;;;6.00;5.35;;;21.90;66.20;;;;;;6294270;28;20074;-68
2023/09/16 10:43:23;;;;;;;6.13;5.53;;;21.90;66.20;;;;;;6294214;28;20024;-68
2023/09/16 10:46:25;;;;;;;6.28;5.63;;;22.00;66.30;;;;;;6292184;28;20055;-68
2023/09/16 10:49:26;;;;;;;7.28;5.80;;;21.90;66.20;;;;;;6294233;28;20028;-68
2023/09/16 10:52:48;;;;;;;6.28;5.13;;;21.90;66.20;;;;;;6287373;28;20028;-68
2023/09/16 10:56:01;;;;;;;5.93;5.32;;;21.90;66.20;;;;;;6292035;28;20359;-67
2023/09/16 10:59:10;;;;;;;6.03;5.07;;;21.90;66.20;;;;;;6293865;28;20021;-68
2023/09/16 11:02:31;;;;;;;6.00;5.40;;;21.90;66.30;;;;;;6292398;28;20020;-67
2023/09/16 11:05:34;;;;;;;5.70;5.10;;;21.90;66.20;;;;;;6286892;28;20024;-68
2023/09/16 11:08:36;;;;;;;6.10;5.50;;;21.90;66.20;;;;;;6293740;28;20024;-67
2023/09/16 11:11:37;;;;;;;5.90;5.30;;;21.90;66.20;;;;;;6293691;28;20177;-68
2023/09/16 11:14:37;;;;;;;6.07;5.47;;;21.90;66.20;;;;;;6294478;28;20028;-68
2023/09/16 11:17:39;;;;;;;5.70;5.10;;;21.90;66.20;;;;;;6293534;28;20044;-68
2023/09/16 11:20:40;;;;;;;5.53;5.00;;;21.90;66.30;;;;;;6291869;28;20031;-67
2023/09/16 11:23:44;;;;;;;6.07;5.45;;;21.90;66.20;;;;;;6293875;28;20021;-68
2023/09/16 11:26:51;;;;;;;5.05;4.55;;;21.90;66.30;;;;;;6293581;28;20025;-67
2023/09/16 11:29:53;;;;;;;5.80;5.20;;;21.90;66.20;;;;;;6293326;28;20461;-68
2023/09/16 11:32:57;;;;;;;5.57;5.00;;;21.90;66.20;;;;;;6292871;28;20498;-68
2023/09/16 11:36:11;;;;;;;5.22;4.70;;;21.90;66.30;;;;;;6291488;28;20021;-68
2023/09/16 11:39:18;;;;;;;5.72;5.03;;;21.90;66.30;;;;;;6292986;28;20353;-68
2023/09/16 11:42:19;;;;;;;5.90;4.97;;;21.90;66.20;;;;;;6285146;28;20024;-67
2023/09/16 11:45:22;;;;;;;5.85;4.70;;;21.90;66.20;;;;;;6292349;28;20064;-68
2023/09/16 11:48:25;;;;;;;5.68;5.07;;;21.90;66.30;;;;;;6292706;28;20483;-67
2023/09/16 11:51:26;;;;;;;5.32;4.80;;;21.90;66.20;;;;;;6288989;28;20465;-67
2023/09/16 11:54:26;;;;;;;5.25;4.72;;;21.90;66.20;;;;;;6293323;28;20024;-67
2023/09/16 11:57:28;;;;;;;5.13;4.63;;;21.90;66.20;;;;;;6292927;28;20104;-68
2023/09/16 12:00:29;;;;;;;5.28;4.78;;;21.90;66.20;;;;;;6292111;28;20032;-68
2023/09/16 12:03:30;;;;;;;5.57;4.88;;;21.90;66.20;;;;;;6293005;28;20063;-68
2023/09/16 12:06:34;;;;;;;5.10;4.50;;;21.90;66.30;;;;;;6292300;28;20411;-68
2023/09/16 12:09:37;;;;;;;5.17;4.67;;;21.90;66.20;;;;;;6292925;28;20445;-68
2023/09/16 12:12:38;;;;;;;5.75;5.15;;;21.90;66.20;;;;;;6293073;28;20052;-68
2023/09/16 12:15:39;;;;;;;4.80;4.25;;;21.90;66.30;;;;;;6292607;28;20535;-68
2023/09/16 12:18:40;;;;;;;4.88;4.22;;;21.90;66.30;;;;;;6290909;28;20035;-68
2023/09/16 12:21:48;;;;;;;5.05;4.55;;;21.90;66.30;;;;;;6292580;28;20032;-68
2023/09/16 12:24:53;;;;;;;4.88;4.38;;;21.90;66.30;;;;;;6293843;28;20055;-68
2023/09/16 12:27:54;;;;;;;5.28;4.78;;;21.90;66.40;;;;;;6297552;28;20044;-67
2023/09/16 12:30:56;;;;;;;5.38;4.55;;;21.90;66.20;;;;;;6296230;28;20082;-68
2023/09/16 12:33:56;;;;;;;4.53;4.13;;;21.90;66.20;;;;;;6297363;28;20460;-68
2023/09/16 12:36:57;;;;;;;5.10;4.60;;;21.90;66.30;;;;;;6297569;28;20093;-68
2023/09/16 12:39:58;;;;;;;4.78;4.28;;;21.90;66.30;;;;;;6297345;28;20028;-68
2023/09/16 12:43:00;;;;;;;4.90;4.40;;;21.90;66.30;;;;;;6297183;28;20070;-68
2023/09/16 12:46:03;;;;;;;4.32;3.92;;;21.90;66.20;;;;;;6297348;28;20020;-68
2023/09/16 12:49:04;;;;;;;4.82;4.32;;;21.90;66.20;;;;;;6296169;28;20024;-67
2023/09/16 12:52:07;;;;;;;4.80;4.30;;;21.90;66.30;;;;;;6296924;28;20035;-68
2023/09/16 12:55:11;;;;;;;5.30;4.43;;;21.90;66.20;;;;;;6295713;28;20027;-68
2023/09/16 12:58:14;;;;;;;5.13;4.50;;;21.90;66.20;;;;;;6296937;28;20332;-68
2023/09/16 13:01:23;;;;;;;5.45;4.82;;;21.90;66.20;;;;;;6293039;28;20036;-67
2023/09/16 13:04:24;;;;;;;5.95;4.78;;;21.90;66.10;;;;;;6296595;28;20020;-68
2023/09/16 13:07:25;;;;;;;5.00;4.43;;;21.90;66.20;;;;;;6296561;28;20016;-68
2023/09/16 13:10:28;;;;;;;5.25;4.00;;;21.90;66.10;;;;;;6296745;28;20444;-67
2023/09/16 13:13:30;;;;;;;4.95;4.13;;;21.90;66.10;;;;;;6296554;28;20047;-68
2023/09/16 13:16:35;;;;;;;4.43;4.03;;;21.90;66.20;;;;;;6296441;28;20108;-68
2023/09/16 13:19:39;;;;;;;4.47;4.07;;;21.90;66.10;;;;;;6296555;28;20505;-67
2023/09/16 13:22:42;;;;;;;4.80;4.30;;;21.90;66.10;;;;;;6295211;28;20033;-68
2023/09/16 13:25:42;;;;;;;4.65;4.18;;;21.90;66.20;;;;;;6296211;28;20063;-68
2023/09/16 13:28:58;;;;;;;4.50;4.10;;;21.90;66.20;;;;;;6296522;28;20237;-67
2023/09/16 13:32:00;;;;;;;5.10;4.47;;;21.90;66.20;;;;;;6294580;28;20429;-68
2023/09/16 13:35:01;;;;;;;5.45;4.00;;;21.90;66.20;;;;;;6294623;28;20025;-68
2023/09/16 13:38:02;;;;;;;4.45;4.05;;;21.90;66.20;;;;;;6295773;28;20040;-68
2023/09/16 13:41:03;;;;;;;4.72;4.15;;;21.90;66.20;;;;;;6295513;28;20410;-68
2023/09/16 13:44:04;;;;;;;5.05;4.47;;;21.90;66.20;;;;;;6295749;28;20130;-68
2023/09/16 13:47:04;;;;;;;4.45;4.05;;;21.90;66.20;;;;;;6295362;28;20036;-67
2023/09/16 13:50:05;;;;;;;4.38;3.83;;;21.90;66.20;;;;;;6296152;28;20032;-67
2023/09/16 13:53:06;;;;;;;4.45;3.95;;;21.90;66.20;;;;;;6288366;28;20083;-67
2023/09/16 13:56:08;;;;;;;4.40;4.00;;;21.90;66.20;;;;;;6293714;28;20021;-67
2023/09/16 13:59:09;;;;;;;4.30;3.80;;;21.90;66.20;;;;;;6295196;28;20108;-68
2023/09/16 14:02:12;;;;;;;4.30;3.90;;;21.90;66.20;;;;;;6295112;28;20487;-68
2023/09/16 14:05:13;;;;;;;4.60;4.18;;;21.90;66.20;;;;;;6293509;28;20473;-68
2023/09/16 14:08:14;;;;;;;5.80;4.40;;;21.90;66.30;;;;;;6287410;28;20020;-67
2023/09/16 14:11:15;;;;;;;4.20;3.67;;;21.90;66.30;;;;;;6294075;28;20025;-67
2023/09/16 14:14:16;;;;;;;4.20;3.75;;;21.90;66.20;;;;;;6293559;28;20484;-68
2023/09/16 14:17:16;;;;;;;6.10;3.40;;;21.90;66.30;;;;;;6294776;28;20102;-68
2023/09/16 14:20:18;;;;;;;5.10;3.75;;;21.90;66.30;;;;;;6293831;28;20364;-68
2023/09/16 14:23:19;;;;;;;3.55;3.25;;;21.90;66.30;;;;;;6294668;28;20033;-68
2023/09/16 14:26:19;;;;;;;4.03;3.60;;;21.90;66.30;;;;;;6295261;28;20550;-68
2023/09/16 14:29:20;;;;;;;4.13;3.70;;;21.90;66.30;;;;;;6294769;28;20070;-67
2023/09/16 14:32:20;;;;;;;4.13;3.63;;;21.90;66.20;;;;;;6294098;28;20044;-68
2023/09/16 14:35:21;;;;;;;4.32;3.90;;;21.90;66.30;;;;;;6293938;28;20051;-68
2023/09/16 14:38:22;;;;;;;8.05;3.70;;;21.90;66.30;;;;;;6292394;28;20410;-68
2023/09/16 14:41:23;;;;;;;3.90;3.47;;;21.90;66.20;;;;;;6293266;28;20039;-68
2023/09/16 14:44:24;;;;;;;3.45;3.13;;;21.90;66.20;;;;;;6293255;28;20020;-68
2023/09/16 14:47:24;;;;;;;3.72;3.35;;;21.90;66.30;;;;;;6291926;28;20071;-68
2023/09/16 14:50:25;;;;;;;3.63;3.10;;;21.90;66.30;;;;;;6293112;28;20514;-68
2023/09/16 14:53:25;;;;;;;3.67;3.28;;;21.90;66.20;;;;;;6289570;28;20029;-68
2023/09/16 14:56:26;;;;;;;3.85;3.50;;;21.90;66.20;;;;;;6292299;28;20123;-68
2023/09/16 14:59:27;;;;;;;3.63;3.25;;;21.90;66.30;;;;;;6293987;28;20040;-67
2023/09/16 15:02:28;;;;;;;3.78;3.38;;;21.90;66.30;;;;;;6292654;28;20021;-68
2023/09/16 15:05:28;;;;;;;4.05;3.65;;;21.90;66.30;;;;;;6293033;28;20013;-68
2023/09/16 15:08:29;;;;;;;3.65;3.35;;;21.90;66.30;;;;;;6293028;28;20025;-68
2023/09/16 15:11:30;;;;;;;3.80;3.40;;;21.90;66.30;;;;;;6293907;28;20021;-68
2023/09/16 15:14:31;;;;;;;3.20;2.90;;;21.90;66.30;;;;;;6293473;28;20115;-67
2023/09/16 15:17:31;;;;;;;3.30;3.00;;;21.90;66.30;;;;;;6291782;28;20042;-68
2023/09/16 15:20:32;;;;;;;3.67;3.28;;;21.90;66.40;;;;;;6293625;28;20512;-68
2023/09/16 15:23:33;;;;;;;4.13;3.47;;;21.90;66.30;;;;;;6292184;28;20115;-68
2023/09/16 15:26:34;;;;;;;3.53;3.00;;;21.90;66.30;;;;;;6293275;28;20028;-67
2023/09/16 15:29:35;;;;;;;3.45;3.05;;;21.90;66.30;;;;;;6293073;28;20040;-68
2023/09/16 15:32:36;;;;;;;3.40;3.10;;;21.90;66.30;;;;;;6293618;28;20025;-68
2023/09/16 15:35:36;;;;;;;3.60;3.03;;;21.90;66.40;;;;;;6291984;28;20470;-67